createdAt,value
2024-01-30T00:00:48.041Z,-0.30
2024-01-30T00:01:49.995Z,-0.33
2024-01-30T00:02:51.848Z,-0.37
2024-01-30T00:03:53.525Z,-0.54
2024-01-30T00:04:55.402Z,-0.50
2024-01-30T00:05:59.609Z,-0.46
2024-01-30T00:07:01.797Z,-0.45
2024-01-30T00:08:04.280Z,-0.45
2024-01-30T00:09:06.265Z,-0.47
2024-01-30T00:10:09.194Z,-0.48
2024-01-30T00:11:11.096Z,-0.54
2024-01-30T00:12:12.770Z,-0.72
2024-01-30T00:13:15.871Z,-0.69
2024-01-30T00:14:17.996Z,-0.70
2024-01-30T00:15:21.862Z,-0.69
2024-01-30T00:16:26.816Z,-0.72
2024-01-30T00:17:28.704Z,-0.74
2024-01-30T00:18:30.541Z,-0.76
2024-01-30T00:19:33.126Z,-0.81
2024-01-30T00:20:34.993Z,-0.84
2024-01-30T00:21:36.842Z,-0.99
2024-01-30T00:22:38.704Z,-0.94
2024-01-30T00:23:40.666Z,-0.94
2024-01-30T00:24:42.474Z,-0.93
2024-01-30T00:25:44.263Z,-0.93
2024-01-30T00:26:48.454Z,-0.96
2024-01-30T00:27:50.217Z,-0.94
2024-01-30T00:28:54.393Z,-0.92
2024-01-30T00:29:56.301Z,-0.92
2024-01-30T00:30:58.081Z,-0.91
2024-01-30T00:32:02.092Z,-0.89
2024-01-30T00:33:05.838Z,-0.89
2024-01-30T00:34:07.850Z,-0.87
2024-01-30T00:35:11.639Z,-0.88
2024-01-30T00:36:13.658Z,-0.90
2024-01-30T00:37:17.918Z,-0.93
2024-01-30T00:38:20.617Z,-0.92
2024-01-30T00:39:24.802Z,-0.96
2024-01-30T00:40:26.590Z,-0.95
2024-01-30T00:41:28.414Z,-0.91
2024-01-30T00:42:30.645Z,-0.90
2024-01-30T00:43:35.000Z,-0.90
2024-01-30T00:44:39.767Z,-0.90
2024-01-30T00:45:41.732Z,-0.92
2024-01-30T00:46:43.511Z,-0.93
2024-01-30T00:47:45.465Z,-1.09
2024-01-30T00:48:49.717Z,-1.03
2024-01-30T00:49:51.683Z,-1.03
2024-01-30T00:50:53.570Z,-1.04
2024-01-30T00:51:55.676Z,-1.03
2024-01-30T00:52:57.397Z,-1.03
2024-01-30T00:53:58.964Z,-1.12
2024-01-30T00:55:01.425Z,-1.06
2024-01-30T00:56:03.398Z,-1.04
2024-01-30T00:57:08.700Z,-1.03
2024-01-30T00:58:10.622Z,-1.01
2024-01-30T00:59:13.031Z,-0.99
2024-01-30T01:00:18.203Z,-0.99
2024-01-30T01:01:20.396Z,-1.01
2024-01-30T01:02:24.923Z,-1.05
2024-01-30T01:03:28.793Z,-1.05
2024-01-30T01:04:30.700Z,-1.06
2024-01-30T01:05:32.544Z,-1.08
2024-01-30T01:06:34.339Z,-1.09
2024-01-30T01:07:37.202Z,-1.11
2024-01-30T01:08:39.011Z,-1.12
2024-01-30T01:09:40.824Z,-1.10
2024-01-30T01:10:42.713Z,-1.11
2024-01-30T01:11:44.527Z,-1.12
2024-01-30T01:12:46.855Z,-1.11
2024-01-30T01:13:49.084Z,-1.09
2024-01-30T01:14:50.860Z,-1.08
2024-01-30T01:15:52.611Z,-1.06
2024-01-30T01:16:54.500Z,-1.06
2024-01-30T01:17:56.404Z,-1.05
2024-01-30T01:18:58.301Z,-1.07
2024-01-30T01:20:00.323Z,-1.07
2024-01-30T01:21:02.277Z,-1.09
2024-01-30T01:22:04.512Z,-1.11
2024-01-30T01:23:07.290Z,-1.13
2024-01-30T01:24:08.998Z,-1.14
2024-01-30T01:25:11.596Z,-1.29
2024-01-30T01:26:13.539Z,-1.25
2024-01-30T01:27:15.149Z,-1.35
2024-01-30T01:28:17.032Z,-1.31
2024-01-30T01:29:19.815Z,-1.30
2024-01-30T01:30:23.102Z,-1.27
2024-01-30T01:31:26.313Z,-1.25
2024-01-30T01:32:28.253Z,-1.25
2024-01-30T01:33:30.441Z,-1.25
2024-01-30T01:34:32.386Z,-1.22
2024-01-30T01:35:36.619Z,-1.21
2024-01-30T01:36:40.793Z,-1.19
2024-01-30T01:37:42.575Z,-1.16
2024-01-30T01:38:46.870Z,-1.09
2024-01-30T01:39:48.793Z,-1.05
2024-01-30T01:40:50.602Z,-0.98
2024-01-30T01:41:52.660Z,-1.04
2024-01-30T01:42:57.560Z,-1.00
2024-01-30T01:44:00.566Z,-0.99
2024-01-30T01:45:03.324Z,-0.99
2024-01-30T01:46:08.401Z,-0.98
2024-01-30T01:47:10.378Z,-0.99
2024-01-30T01:48:13.498Z,-0.95
2024-01-30T01:49:15.962Z,-0.97
2024-01-30T01:50:22.497Z,-0.94
2024-01-30T01:51:30.789Z,-0.92
2024-01-30T01:52:32.768Z,-0.89
2024-01-30T01:53:37.592Z,-0.87
2024-01-30T01:54:41.905Z,-0.85
2024-01-30T01:55:46.781Z,-0.87
2024-01-30T01:56:48.640Z,-0.87
2024-01-30T01:57:51.253Z,-0.87
2024-01-30T01:58:56.290Z,-0.87
2024-01-30T01:59:58.049Z,-0.85
2024-01-30T02:12:42.146Z,-0.54
2024-01-30T02:13:44.126Z,-0.59
2024-01-30T02:14:46.470Z,-0.76
2024-01-30T02:15:54.283Z,-0.73
2024-01-30T02:16:56.211Z,-0.73
2024-01-30T02:17:57.908Z,-0.90
2024-01-30T02:18:59.834Z,-0.83
2024-01-30T02:20:02.198Z,-0.85
2024-01-30T02:21:07.338Z,-0.84
2024-01-30T02:22:10.383Z,-0.84
2024-01-30T02:23:13.889Z,-0.84
2024-01-30T02:24:15.661Z,-0.86
2024-01-30T02:25:17.520Z,-0.86
2024-01-30T02:26:19.402Z,-0.88
2024-01-30T02:27:21.224Z,-0.99
2024-01-30T02:28:23.028Z,-0.91
2024-01-30T02:29:24.999Z,-0.87
2024-01-30T02:30:27.120Z,-0.87
2024-01-30T02:31:28.888Z,-0.87
2024-01-30T02:32:33.357Z,-0.87
2024-01-30T02:33:35.335Z,-0.87
2024-01-30T02:34:37.232Z,-0.87
2024-01-30T02:35:39.128Z,-0.90
2024-01-30T02:36:43.891Z,-0.89
2024-01-30T02:37:48.278Z,-0.89
2024-01-30T02:38:50.159Z,-0.93
2024-01-30T02:39:54.930Z,-0.94
2024-01-30T02:40:57.618Z,-0.94
2024-01-30T02:41:59.627Z,-0.99
2024-01-30T02:43:02.472Z,-1.20
2024-01-30T02:44:04.976Z,-1.05
2024-01-30T02:45:10.325Z,-1.03
2024-01-30T02:46:12.152Z,-1.03
2024-01-30T02:47:14.076Z,-1.04
2024-01-30T02:48:15.957Z,-1.04
2024-01-30T02:49:17.879Z,-1.02
2024-01-30T02:50:19.703Z,-1.02
2024-01-30T02:51:23.782Z,-1.02
2024-01-30T02:52:27.626Z,-0.99
2024-01-30T02:53:29.215Z,-1.12
2024-01-30T02:54:31.925Z,-1.04
2024-01-30T02:55:38.408Z,-1.00
2024-01-30T02:56:40.713Z,-0.99
2024-01-30T02:57:42.727Z,-0.96
2024-01-30T02:58:44.474Z,-0.97
2024-01-30T02:59:46.248Z,-1.06
2024-01-30T03:00:48.201Z,-1.00
2024-01-30T03:01:52.352Z,-0.99
2024-01-30T03:02:54.183Z,-0.98
2024-01-30T03:03:56.037Z,-0.99
2024-01-30T03:04:57.750Z,-1.11
2024-01-30T03:06:02.183Z,-1.06
2024-01-30T03:07:04.831Z,-1.02
2024-01-30T03:08:09.179Z,-1.02
2024-01-30T03:09:11.740Z,-0.99
2024-01-30T03:10:13.766Z,-1.00
2024-01-30T03:11:15.626Z,-0.99
2024-01-30T03:12:17.472Z,-0.99
2024-01-30T03:13:19.407Z,-0.99
2024-01-30T03:14:21.444Z,-0.98
2024-01-30T03:15:24.086Z,-0.97
2024-01-30T03:16:25.999Z,-0.96
2024-01-30T03:17:27.988Z,-0.96
2024-01-30T03:18:31.797Z,-0.94
2024-01-30T03:19:33.638Z,-0.94
2024-01-30T03:20:36.372Z,-0.92
2024-01-30T03:21:38.172Z,-0.90
2024-01-30T03:22:39.948Z,-0.91
2024-01-30T03:23:43.626Z,-1.00
2024-01-30T03:24:45.333Z,-0.97
2024-01-30T03:25:46.969Z,-1.05
2024-01-30T03:26:48.957Z,-1.00
2024-01-30T03:27:50.713Z,-0.98
2024-01-30T03:28:53.594Z,-0.98
2024-01-30T03:29:55.445Z,-0.97
2024-01-30T03:30:57.260Z,-0.96
2024-01-30T03:31:59.141Z,-0.97
2024-01-30T03:33:00.887Z,-0.94
2024-01-30T03:34:03.431Z,-0.94
2024-01-30T03:35:05.928Z,-0.96
2024-01-30T03:36:09.432Z,-0.94
2024-01-30T03:37:11.219Z,-0.94
2024-01-30T03:38:12.993Z,-0.91
2024-01-30T03:39:14.798Z,-1.01
2024-01-30T03:40:16.804Z,-0.97
2024-01-30T03:41:18.601Z,-0.94
2024-01-30T03:42:20.280Z,-1.04
2024-01-30T03:43:22.078Z,-0.97
2024-01-30T03:44:23.865Z,-0.96
2024-01-30T03:45:25.554Z,-1.08
2024-01-30T03:46:27.763Z,-1.04
2024-01-30T03:47:29.746Z,-1.01
2024-01-30T03:48:31.627Z,-1.01
2024-01-30T03:49:33.507Z,-0.99
2024-01-30T03:50:35.393Z,-0.98
2024-01-30T03:51:37.067Z,-1.08
2024-01-30T03:52:38.779Z,-1.02
2024-01-30T03:53:41.490Z,-1.00
2024-01-30T03:54:43.214Z,-1.01
2024-01-30T03:55:44.806Z,-1.09
2024-01-30T03:56:46.849Z,-1.04
2024-01-30T03:57:48.534Z,-1.02
2024-01-30T03:58:50.138Z,-1.11
2024-01-30T03:59:51.997Z,-1.05
2024-01-30T04:00:58.578Z,-1.06
2024-01-30T04:02:01.418Z,-1.09
2024-01-30T04:03:05.603Z,-1.13
2024-01-30T04:04:07.449Z,-1.14
2024-01-30T04:05:09.604Z,-1.15
2024-01-30T04:06:11.813Z,-1.17
2024-01-30T04:07:13.672Z,-1.14
2024-01-30T04:08:15.376Z,-1.14
2024-01-30T04:09:17.184Z,-1.14
2024-01-30T04:10:18.907Z,-1.27
2024-01-30T04:11:22.859Z,-1.22
2024-01-30T04:12:25.549Z,-1.23
2024-01-30T04:13:31.557Z,-1.25
2024-01-30T04:14:33.278Z,-1.28
2024-01-30T04:15:35.944Z,-1.41
2024-01-30T04:16:37.692Z,-1.37
2024-01-30T04:17:39.396Z,-1.48
2024-01-30T04:18:41.303Z,-1.44
2024-01-30T04:19:43.215Z,-1.46
2024-01-30T04:20:46.366Z,-1.44
2024-01-30T04:21:48.140Z,-1.45
2024-01-30T04:22:49.880Z,-1.55
2024-01-30T04:23:54.983Z,-1.50
2024-01-30T04:24:56.841Z,-1.51
2024-01-30T04:25:58.653Z,-1.51
2024-01-30T04:27:00.239Z,-1.63
2024-01-30T04:28:02.114Z,-1.60
2024-01-30T04:29:03.949Z,-1.57
2024-01-30T04:30:06.353Z,-1.57
2024-01-30T04:31:08.184Z,-1.59
2024-01-30T04:32:11.128Z,-1.57
2024-01-30T04:33:15.844Z,-1.59
2024-01-30T04:34:17.743Z,-1.58
2024-01-30T04:35:21.904Z,-1.57
2024-01-30T04:36:23.810Z,-1.55
2024-01-30T04:37:26.252Z,-1.54
2024-01-30T04:38:30.630Z,-1.53
2024-01-30T04:39:34.245Z,-1.51
2024-01-30T04:40:36.007Z,-1.49
2024-01-30T04:41:37.578Z,-1.61
2024-01-30T04:42:39.415Z,-1.54
2024-01-30T04:43:41.296Z,-1.51
2024-01-30T04:44:43.000Z,-1.59
2024-01-30T04:45:44.831Z,-1.52
2024-01-30T04:46:46.667Z,-1.51
2024-01-30T04:47:48.666Z,-1.50
2024-01-30T04:48:50.472Z,-1.49
2024-01-30T04:49:53.071Z,-1.48
2024-01-30T04:50:57.687Z,-1.49
2024-01-30T04:52:01.801Z,-1.50
2024-01-30T04:53:03.710Z,-1.52
2024-01-30T04:54:05.464Z,-1.51
2024-01-30T04:55:07.508Z,-1.67
2024-01-30T04:56:09.346Z,-1.72
2024-01-30T04:57:13.656Z,-1.76
2024-01-30T04:58:15.430Z,-1.77
2024-01-30T04:59:17.115Z,-1.76
2024-01-30T05:02:20.520Z,-2.04
2024-01-30T05:03:24.030Z,-2.14
2024-01-30T05:04:25.951Z,-2.07
2024-01-30T05:05:27.747Z,-1.94
2024-01-30T05:06:29.808Z,-1.84
2024-01-30T05:07:31.794Z,-1.73
2024-01-30T05:08:33.716Z,-1.64
2024-01-30T05:09:37.935Z,-1.58
2024-01-30T05:10:39.787Z,-1.52
2024-01-30T05:11:42.179Z,-1.45
2024-01-30T05:12:44.023Z,-1.43
2024-01-30T05:13:45.732Z,-1.46
2024-01-30T05:14:47.502Z,-1.38
2024-01-30T05:15:51.574Z,-1.34
2024-01-30T05:16:54.006Z,-1.36
2024-01-30T05:17:56.420Z,-1.36
2024-01-30T05:19:01.315Z,-1.35
2024-01-30T05:20:07.149Z,-1.33
2024-01-30T05:21:11.919Z,-1.36
2024-01-30T05:22:19.218Z,-1.41
2024-01-30T05:23:20.943Z,-1.44
2024-01-30T05:24:26.747Z,-1.57
2024-01-30T05:25:29.754Z,-1.48
2024-01-30T05:26:31.499Z,-1.47
2024-01-30T05:27:33.048Z,-1.61
2024-01-30T05:28:34.969Z,-1.57
2024-01-30T05:29:36.945Z,-1.56
2024-01-30T05:30:38.711Z,-1.54
2024-01-30T05:31:40.556Z,-1.53
2024-01-30T05:32:42.238Z,-1.67
2024-01-30T05:33:44.539Z,-1.59
2024-01-30T05:34:46.532Z,-1.60
2024-01-30T05:35:48.239Z,-1.66
2024-01-30T05:36:49.958Z,-1.60
2024-01-30T05:37:52.129Z,-1.59
2024-01-30T05:38:54.103Z,-1.55
2024-01-30T05:39:55.893Z,-1.51
2024-01-30T05:41:00.191Z,-1.48
2024-01-30T05:42:01.977Z,-1.44
2024-01-30T05:43:04.086Z,-1.41
2024-01-30T05:44:10.751Z,-1.38
2024-01-30T05:45:12.464Z,-1.35
2024-01-30T05:46:16.310Z,-1.36
2024-01-30T05:47:18.127Z,-1.36
2024-01-30T05:48:19.707Z,-1.46
2024-01-30T05:49:21.547Z,-1.37
2024-01-30T05:50:27.526Z,-1.32
2024-01-30T05:51:29.638Z,-1.30
2024-01-30T05:52:31.419Z,-1.28
2024-01-30T05:53:33.275Z,-1.29
2024-01-30T05:54:35.347Z,-1.27
2024-01-30T05:55:39.551Z,-1.26
2024-01-30T05:56:41.304Z,-1.24
2024-01-30T05:57:45.235Z,-1.22
2024-01-30T05:58:46.888Z,-1.30
2024-01-30T05:59:48.991Z,-1.24
2024-01-30T06:00:51.033Z,-1.21
2024-01-30T06:01:55.171Z,-1.23
2024-01-30T06:02:57.046Z,-1.26
2024-01-30T06:03:58.736Z,-1.37
2024-01-30T06:05:00.587Z,-1.34
2024-01-30T06:06:04.911Z,-1.31
2024-01-30T06:07:07.574Z,-1.31
2024-01-30T06:08:09.492Z,-1.31
2024-01-30T06:09:11.348Z,-1.27
2024-01-30T06:10:13.000Z,-1.35
2024-01-30T06:11:14.870Z,-1.26
2024-01-30T06:12:16.772Z,-1.20
2024-01-30T06:13:18.950Z,-1.15
2024-01-30T06:14:20.784Z,-1.12
2024-01-30T06:15:22.606Z,-1.08
2024-01-30T06:16:30.620Z,-1.05
2024-01-30T06:17:32.568Z,-1.01
2024-01-30T06:18:34.610Z,-0.97
2024-01-30T06:19:36.488Z,-0.93
2024-01-30T06:20:40.435Z,-0.90
2024-01-30T06:21:42.469Z,-0.90
2024-01-30T06:22:44.569Z,-0.89
2024-01-30T06:23:47.550Z,-0.92
2024-01-30T06:24:49.832Z,-0.92
2024-01-30T06:25:51.663Z,-1.01
2024-01-30T06:26:53.397Z,-1.02
2024-01-30T06:27:55.367Z,-1.02
2024-01-30T06:28:57.235Z,-1.04
2024-01-30T06:29:58.914Z,-1.04
2024-01-30T06:31:02.617Z,-1.05
2024-01-30T06:32:04.766Z,-1.09
2024-01-30T06:33:06.868Z,-1.13
2024-01-30T06:34:13.193Z,-1.11
2024-01-30T06:35:15.073Z,-1.13
2024-01-30T06:36:16.825Z,-1.15
2024-01-30T06:37:18.751Z,-1.15
2024-01-30T06:38:22.826Z,-1.15
2024-01-30T06:39:24.573Z,-1.15
2024-01-30T06:40:26.688Z,-1.16
2024-01-30T06:41:28.577Z,-1.14
2024-01-30T06:42:30.314Z,-1.14
2024-01-30T06:43:32.292Z,-1.11
2024-01-30T06:44:33.972Z,-1.12
2024-01-30T06:45:35.861Z,-1.22
2024-01-30T06:46:40.802Z,-1.15
2024-01-30T06:47:42.797Z,-1.16
2024-01-30T06:48:46.130Z,-1.13
2024-01-30T06:49:48.005Z,-1.11
2024-01-30T06:50:50.572Z,-1.16
2024-01-30T06:51:52.315Z,-1.18
2024-01-30T06:52:54.160Z,-1.14
2024-01-30T06:53:56.029Z,-1.13
2024-01-30T06:54:57.787Z,-1.07
2024-01-30T06:55:59.828Z,-1.07
2024-01-30T06:57:01.826Z,-1.05
2024-01-30T06:58:05.713Z,-1.06
2024-01-30T06:59:07.773Z,-1.05
2024-01-30T07:00:09.893Z,-1.08
2024-01-30T07:01:11.675Z,-1.05
2024-01-30T07:02:16.096Z,-1.02
2024-01-30T07:03:17.840Z,-1.02
2024-01-30T07:04:19.747Z,-1.12
2024-01-30T07:05:23.077Z,-1.07
2024-01-30T07:06:24.919Z,-1.06
2024-01-30T07:07:26.812Z,-1.07
2024-01-30T07:08:28.936Z,-1.01
2024-01-30T07:09:31.056Z,-0.98
2024-01-30T07:10:32.974Z,-0.95
2024-01-30T07:11:34.775Z,-0.91
2024-01-30T07:12:38.830Z,-0.98
2024-01-30T07:13:40.653Z,-0.89
2024-01-30T07:14:42.548Z,-0.84
2024-01-30T07:15:44.489Z,-0.82
2024-01-30T07:16:48.422Z,-0.82
2024-01-30T07:17:50.187Z,-0.82
2024-01-30T07:18:52.211Z,-0.91
2024-01-30T07:19:54.110Z,-0.84
2024-01-30T07:20:56.014Z,-0.76
2024-01-30T07:21:57.625Z,-0.83
2024-01-30T07:23:00.071Z,-0.74
2024-01-30T07:24:01.976Z,-0.70
2024-01-30T07:25:04.401Z,-0.67
2024-01-30T07:26:07.932Z,-0.64
2024-01-30T07:27:09.839Z,-0.62
2024-01-30T07:28:13.060Z,-0.58
2024-01-30T07:29:14.792Z,-0.57
2024-01-30T07:30:18.428Z,-0.67
2024-01-30T07:31:21.985Z,-0.59
2024-01-30T07:32:23.767Z,-0.55
2024-01-30T07:33:25.652Z,-0.52
2024-01-30T07:34:28.852Z,-0.50
2024-01-30T07:35:30.974Z,-0.48
2024-01-30T07:36:35.947Z,-0.50
2024-01-30T07:37:40.273Z,-0.52
2024-01-30T07:38:44.405Z,-0.49
2024-01-30T07:39:46.307Z,-0.50
2024-01-30T07:40:48.196Z,-0.49
2024-01-30T07:41:50.154Z,-0.46
2024-01-30T07:42:52.309Z,-0.46
2024-01-30T07:43:54.894Z,-0.43
2024-01-30T07:44:58.878Z,-0.41
2024-01-30T07:46:03.113Z,-0.40
2024-01-30T07:47:07.493Z,-0.39
2024-01-30T07:48:09.429Z,-0.38
2024-01-30T07:49:11.558Z,-0.38
2024-01-30T07:50:13.871Z,-0.42
2024-01-30T07:51:15.689Z,-0.45
2024-01-30T07:52:17.500Z,-0.47
2024-01-30T07:53:19.281Z,-0.61
2024-01-30T07:54:21.090Z,-0.53
2024-01-30T07:55:28.623Z,-0.52
2024-01-30T07:56:30.836Z,-0.57
2024-01-30T07:57:32.646Z,-0.61
2024-01-30T07:58:34.756Z,-0.58
2024-01-30T07:59:38.790Z,-0.56
2024-01-30T08:02:15.000Z,-0.97
2024-01-30T08:03:18.727Z,-1.03
2024-01-30T08:04:23.216Z,-0.96
2024-01-30T08:05:25.454Z,-0.88
2024-01-30T08:06:27.463Z,-0.77
2024-01-30T08:07:30.984Z,-0.67
2024-01-30T08:08:32.815Z,-0.60
2024-01-30T08:09:37.564Z,-0.54
2024-01-30T08:10:39.443Z,-0.48
2024-01-30T08:11:41.398Z,-0.43
2024-01-30T08:12:43.306Z,-0.37
2024-01-30T08:13:45.065Z,-0.32
2024-01-30T08:14:46.803Z,-0.39
2024-01-30T08:15:50.876Z,-0.25
2024-01-30T08:16:52.683Z,-0.16
2024-01-30T08:17:59.014Z,-0.20
2024-01-30T08:19:02.402Z,-0.03
2024-01-30T08:20:05.903Z,0.05
2024-01-30T08:21:10.813Z,0.12
2024-01-30T08:22:13.682Z,0.21
2024-01-30T08:23:15.504Z,0.28
2024-01-30T08:24:17.413Z,0.35
2024-01-30T08:25:19.593Z,0.44
2024-01-30T08:26:24.059Z,0.52
2024-01-30T08:27:25.766Z,0.62
2024-01-30T08:28:30.304Z,0.71
2024-01-30T08:29:32.096Z,0.81
2024-01-30T08:30:33.700Z,0.79
2024-01-30T08:31:35.665Z,0.92
2024-01-30T08:32:37.462Z,1.02
2024-01-30T08:33:45.134Z,1.15
2024-01-30T08:34:47.830Z,1.21
2024-01-30T08:35:52.073Z,1.31
2024-01-30T08:36:54.060Z,1.40
2024-01-30T08:37:58.988Z,1.50
2024-01-30T08:39:02.862Z,1.59
2024-01-30T08:40:09.581Z,1.69
2024-01-30T08:41:11.647Z,1.73
2024-01-30T08:42:15.793Z,1.78
2024-01-30T08:43:20.074Z,1.88
2024-01-30T08:44:22.193Z,1.97
2024-01-30T08:45:26.017Z,2.06
2024-01-30T08:46:27.667Z,2.02
2024-01-30T08:47:29.494Z,2.19
2024-01-30T08:48:31.377Z,2.18
2024-01-30T08:49:33.724Z,2.33
2024-01-30T08:50:37.848Z,2.39
2024-01-30T08:51:41.791Z,2.45
2024-01-30T08:52:43.524Z,2.53
2024-01-30T08:53:45.315Z,2.60
2024-01-30T08:54:47.056Z,2.54
2024-01-30T08:55:51.393Z,2.69
2024-01-30T08:56:54.317Z,2.64
2024-01-30T08:57:56.216Z,2.78
2024-01-30T08:59:00.488Z,2.81
2024-01-30T09:00:07.777Z,2.87
2024-01-30T09:01:10.633Z,2.92
2024-01-30T09:02:17.549Z,2.94
2024-01-30T09:03:20.518Z,2.97
2024-01-30T09:04:26.072Z,3.06
2024-01-30T09:05:28.363Z,3.09
2024-01-30T09:06:30.381Z,3.16
2024-01-30T09:07:32.216Z,3.17
2024-01-30T09:08:34.860Z,3.21
2024-01-30T09:09:36.670Z,3.26
2024-01-30T09:10:38.577Z,3.16
2024-01-30T09:11:40.367Z,3.29
2024-01-30T09:12:42.386Z,3.20
2024-01-30T09:13:44.714Z,3.34
2024-01-30T09:14:46.437Z,3.38
2024-01-30T09:15:48.159Z,3.21
2024-01-30T09:16:50.376Z,3.33
2024-01-30T09:17:52.238Z,3.36
2024-01-30T09:18:56.604Z,3.36
2024-01-30T09:19:58.356Z,3.41
2024-01-30T09:21:00.042Z,3.25
2024-01-30T09:22:01.913Z,3.37
2024-01-30T09:23:03.953Z,3.40
2024-01-30T09:24:08.776Z,3.39
2024-01-30T09:25:11.073Z,3.43
2024-01-30T09:26:13.846Z,3.40
2024-01-30T09:27:17.945Z,3.39
2024-01-30T09:28:19.997Z,3.38
2024-01-30T09:29:22.881Z,3.35
2024-01-30T09:30:24.665Z,3.37
2024-01-30T09:31:26.663Z,3.35
2024-01-30T09:32:28.536Z,3.38
2024-01-30T09:33:30.304Z,3.31
2024-01-30T09:34:32.531Z,3.11
2024-01-30T09:35:34.792Z,3.17
2024-01-30T09:36:36.565Z,3.19
2024-01-30T09:37:38.452Z,3.17
2024-01-30T09:38:40.390Z,3.20
2024-01-30T09:39:42.239Z,3.03
2024-01-30T09:40:45.505Z,3.11
2024-01-30T09:41:55.619Z,3.10
2024-01-30T09:43:00.950Z,3.10
2024-01-30T09:44:05.203Z,3.08
2024-01-30T09:45:07.688Z,3.11
2024-01-30T09:46:14.210Z,3.10
2024-01-30T09:47:20.083Z,3.12
2024-01-30T09:48:22.861Z,3.11
2024-01-30T09:49:25.826Z,3.11
2024-01-30T09:50:28.892Z,3.11
2024-01-30T09:51:31.870Z,3.11
2024-01-30T09:52:34.221Z,3.11
2024-01-30T09:53:37.778Z,3.13
2024-01-30T09:54:39.865Z,3.16
2024-01-30T09:55:44.440Z,3.15
2024-01-30T09:56:46.361Z,3.19
2024-01-30T09:57:48.227Z,3.20
2024-01-30T09:58:49.948Z,3.21
2024-01-30T09:59:53.071Z,3.03
2024-01-30T10:00:57.521Z,3.16
2024-01-30T10:02:02.100Z,3.15
2024-01-30T10:03:04.776Z,3.19
2024-01-30T10:04:08.293Z,3.22
2024-01-30T10:05:16.348Z,3.27
2024-01-30T10:06:19.979Z,3.31
2024-01-30T10:07:23.271Z,3.34
2024-01-30T10:08:27.827Z,3.40
2024-01-30T10:09:35.963Z,3.41
2024-01-30T10:10:38.090Z,3.45
2024-01-30T10:11:39.898Z,3.49
2024-01-30T10:12:44.561Z,3.51
2024-01-30T10:13:47.159Z,3.56
2024-01-30T10:14:51.208Z,3.61
2024-01-30T10:15:54.553Z,3.61
2024-01-30T10:16:56.728Z,3.57
2024-01-30T10:17:58.796Z,3.62
2024-01-30T10:19:00.877Z,3.63
2024-01-30T10:20:06.506Z,3.60
2024-01-30T10:21:11.403Z,3.65
2024-01-30T10:22:15.933Z,3.67
2024-01-30T10:23:18.797Z,3.69
2024-01-30T10:24:25.541Z,3.72
2024-01-30T10:25:30.359Z,3.73
2024-01-30T10:26:35.275Z,3.79
2024-01-30T10:27:37.035Z,3.86
2024-01-30T10:28:41.692Z,3.73
2024-01-30T10:29:43.520Z,3.87
2024-01-30T10:30:59.843Z,3.82
2024-01-30T10:32:07.078Z,3.90
2024-01-30T10:33:08.945Z,3.93
2024-01-30T10:34:16.919Z,3.96
2024-01-30T10:35:25.110Z,4.02
2024-01-30T10:36:30.674Z,4.09
2024-01-30T10:37:34.367Z,4.17
2024-01-30T10:38:38.055Z,4.24
2024-01-30T10:39:41.256Z,4.28
2024-01-30T10:40:44.943Z,4.32
2024-01-30T10:41:49.945Z,4.34
2024-01-30T10:42:56.581Z,4.41
2024-01-30T10:44:05.180Z,4.45
2024-01-30T10:45:15.128Z,4.49
2024-01-30T10:46:21.506Z,4.50
2024-01-30T10:47:28.641Z,4.52
2024-01-30T10:48:33.737Z,4.60
2024-01-30T10:49:36.616Z,4.60
2024-01-30T10:50:47.535Z,4.61
2024-01-30T10:51:57.248Z,4.63
2024-01-30T10:53:01.077Z,4.66
2024-01-30T10:54:08.694Z,4.68
2024-01-30T10:55:13.860Z,4.72
2024-01-30T10:56:17.478Z,4.77
2024-01-30T10:57:19.673Z,4.80
2024-01-30T10:58:22.026Z,4.83
2024-01-30T10:59:25.883Z,4.88
2024-01-30T11:02:14.372Z,4.54
2024-01-30T11:03:18.222Z,4.45
2024-01-30T11:04:20.050Z,4.49
2024-01-30T11:05:31.640Z,4.56
2024-01-30T11:06:42.788Z,4.69
2024-01-30T11:07:44.992Z,4.79
2024-01-30T11:08:47.374Z,4.89
2024-01-30T11:10:04.786Z,4.93
2024-01-30T11:11:10.468Z,4.99
2024-01-30T11:12:13.725Z,5.09
2024-01-30T11:13:15.982Z,5.09
2024-01-30T11:14:18.405Z,5.14
2024-01-30T11:15:20.481Z,5.16
2024-01-30T11:16:22.398Z,5.21
2024-01-30T11:17:29.276Z,5.22
2024-01-30T11:18:32.967Z,5.28
2024-01-30T11:19:38.035Z,5.32
2024-01-30T11:20:47.807Z,5.38
2024-01-30T11:21:51.977Z,5.40
2024-01-30T11:22:57.572Z,5.43
2024-01-30T11:23:59.303Z,5.51
2024-01-30T11:25:01.050Z,5.41
2024-01-30T11:26:03.496Z,5.51
2024-01-30T11:27:10.122Z,5.60
2024-01-30T11:28:18.270Z,5.62
2024-01-30T11:29:20.340Z,5.69
2024-01-30T11:30:32.893Z,5.66
2024-01-30T11:31:34.693Z,5.75
2024-01-30T11:32:39.476Z,5.83
2024-01-30T11:33:41.380Z,5.88
2024-01-30T11:34:45.816Z,5.94
2024-01-30T11:35:48.800Z,5.97
2024-01-30T11:37:00.014Z,6.00
2024-01-30T11:38:03.394Z,6.03
2024-01-30T11:39:05.655Z,6.11
2024-01-30T11:40:10.727Z,6.10
2024-01-30T11:41:12.728Z,6.16
2024-01-30T11:42:15.301Z,6.21
2024-01-30T11:43:18.216Z,6.24
2024-01-30T11:44:21.899Z,6.27
2024-01-30T11:45:23.698Z,6.28
2024-01-30T11:46:26.617Z,6.17
2024-01-30T11:47:28.905Z,6.26
2024-01-30T11:48:31.103Z,6.32
2024-01-30T11:49:33.110Z,6.39
2024-01-30T11:50:35.994Z,6.44
2024-01-30T11:51:41.361Z,6.50
2024-01-30T11:52:44.173Z,6.53
2024-01-30T11:53:45.925Z,6.59
2024-01-30T11:54:48.020Z,6.63
2024-01-30T11:55:54.963Z,6.64
2024-01-30T11:56:57.025Z,6.66
2024-01-30T11:57:59.399Z,6.58
2024-01-30T11:59:02.258Z,6.73
2024-01-30T12:00:11.542Z,6.78
2024-01-30T12:01:14.071Z,6.84
2024-01-30T12:02:19.049Z,6.89
2024-01-30T12:03:20.799Z,6.88
2024-01-30T12:04:22.672Z,6.92
2024-01-30T12:05:28.568Z,6.98
2024-01-30T12:06:30.520Z,7.01
2024-01-30T12:07:33.170Z,7.03
2024-01-30T12:08:35.019Z,7.13
2024-01-30T12:09:39.222Z,7.13
2024-01-30T12:10:41.784Z,7.15
2024-01-30T12:11:47.219Z,7.14
2024-01-30T12:12:51.191Z,7.22
2024-01-30T12:13:56.794Z,7.22
2024-01-30T12:14:58.715Z,7.26
2024-01-30T12:16:02.714Z,7.27
2024-01-30T12:17:08.747Z,7.31
2024-01-30T12:18:10.756Z,7.33
2024-01-30T12:19:21.979Z,7.37
2024-01-30T12:20:24.418Z,7.41
2024-01-30T12:21:26.261Z,7.43
2024-01-30T12:22:27.936Z,7.30
2024-01-30T12:23:30.525Z,7.38
2024-01-30T12:24:33.113Z,7.47
2024-01-30T12:25:35.055Z,7.46
2024-01-30T12:26:39.412Z,7.51
2024-01-30T12:27:44.069Z,7.55
2024-01-30T12:28:50.670Z,7.53
2024-01-30T12:29:58.168Z,7.56
2024-01-30T12:31:06.119Z,7.57
2024-01-30T12:32:07.966Z,7.66
2024-01-30T12:33:11.166Z,7.62
2024-01-30T12:34:18.391Z,7.67
2024-01-30T12:35:24.681Z,7.71
2024-01-30T12:36:27.022Z,7.73
2024-01-30T12:37:30.729Z,7.74
2024-01-30T12:38:32.804Z,7.76
2024-01-30T12:39:36.350Z,7.77
2024-01-30T12:40:41.969Z,7.85
2024-01-30T12:41:44.216Z,7.89
2024-01-30T12:42:51.238Z,7.91
2024-01-30T12:43:53.622Z,7.95
2024-01-30T12:44:58.044Z,7.97
2024-01-30T12:46:02.174Z,7.98
2024-01-30T12:47:04.932Z,8.02
2024-01-30T12:48:10.279Z,8.03
2024-01-30T12:49:12.483Z,8.10
2024-01-30T12:50:16.891Z,8.08
2024-01-30T12:51:20.911Z,8.14
2024-01-30T12:52:23.618Z,8.17
2024-01-30T12:53:25.696Z,8.22
2024-01-30T12:54:29.754Z,8.25
2024-01-30T12:55:31.697Z,8.26
2024-01-30T12:56:34.522Z,8.29
2024-01-30T12:57:36.423Z,8.33
2024-01-30T12:58:38.719Z,8.34
2024-01-30T12:59:40.726Z,8.35
2024-01-30T13:00:44.461Z,8.41
2024-01-30T13:01:46.730Z,8.38
2024-01-30T13:02:49.155Z,8.41
2024-01-30T13:03:53.798Z,8.47
2024-01-30T13:04:58.055Z,8.47
2024-01-30T13:06:02.495Z,8.49
2024-01-30T13:07:07.428Z,8.54
2024-01-30T13:08:09.232Z,8.56
2024-01-30T13:09:10.927Z,8.42
2024-01-30T13:10:13.051Z,8.54
2024-01-30T13:11:20.855Z,8.59
2024-01-30T13:12:23.480Z,8.61
2024-01-30T13:13:25.108Z,8.50
2024-01-30T13:14:27.341Z,8.66
2024-01-30T13:15:29.303Z,8.71
2024-01-30T13:16:31.394Z,8.76
2024-01-30T13:17:34.183Z,8.79
2024-01-30T13:18:36.011Z,8.82
2024-01-30T13:19:40.221Z,8.86
2024-01-30T13:20:42.234Z,8.87
2024-01-30T13:21:44.173Z,8.94
2024-01-30T13:22:47.191Z,8.97
2024-01-30T13:23:48.998Z,8.96
2024-01-30T13:24:51.347Z,8.89
2024-01-30T13:25:58.848Z,9.07
2024-01-30T13:27:00.724Z,9.13
2024-01-30T13:28:04.011Z,9.16
2024-01-30T13:29:05.938Z,9.19
2024-01-30T13:30:12.098Z,9.22
2024-01-30T13:31:15.770Z,9.25
2024-01-30T13:32:17.601Z,9.26
2024-01-30T13:33:19.538Z,9.30
2024-01-30T13:34:21.373Z,9.35
2024-01-30T13:35:23.207Z,9.36
2024-01-30T13:36:25.187Z,9.39
2024-01-30T13:37:27.115Z,9.43
2024-01-30T13:38:28.946Z,9.47
2024-01-30T13:39:33.746Z,9.47
2024-01-30T13:40:40.694Z,9.48
2024-01-30T13:41:43.429Z,9.48
2024-01-30T13:42:45.360Z,9.51
2024-01-30T13:43:47.813Z,9.40
2024-01-30T13:44:49.424Z,9.31
2024-01-30T13:45:51.474Z,9.47
2024-01-30T13:46:53.395Z,9.54
2024-01-30T13:47:55.110Z,9.46
2024-01-30T13:48:59.865Z,9.58
2024-01-30T13:50:01.837Z,9.61
2024-01-30T13:51:06.228Z,9.63
2024-01-30T13:52:08.141Z,9.62
2024-01-30T13:53:09.897Z,9.48
2024-01-30T13:54:11.691Z,9.56
2024-01-30T13:55:14.179Z,9.61
2024-01-30T13:56:16.177Z,9.63
2024-01-30T13:57:17.794Z,9.48
2024-01-30T13:58:19.675Z,9.59
2024-01-30T13:59:25.368Z,9.61
2024-01-30T14:12:47.075Z,9.63